createdAt,value
2019-05-22T00:00:13.070Z,15.55
2019-05-22T00:03:50.100Z,15.6
2019-05-22T00:07:21.140Z,15.56
2019-05-22T00:10:51.209Z,15.56
2019-05-22T00:14:21.098Z,15.65
2019-05-22T00:17:52.689Z,15.66
2019-05-22T00:21:22.970Z,15.73
2019-05-22T00:24:59.146Z,15.76
2019-05-22T00:28:31.094Z,15.79
2019-05-22T00:32:01.197Z,15.7
2019-05-22T00:35:33.036Z,15.74
2019-05-22T00:39:05.464Z,15.73
2019-05-22T00:42:38.446Z,15.73
2019-05-22T00:46:17.226Z,15.69
2019-05-22T00:49:49.951Z,15.65
2019-05-22T00:53:35.456Z,15.6
2019-05-22T00:57:44.310Z,15.59
2019-05-22T01:01:27.343Z,15.54
2019-05-22T01:04:58.445Z,15.53
2019-05-22T01:08:30.144Z,15.55
2019-05-22T01:12:03.151Z,15.44
2019-05-22T01:15:36.038Z,15.4
2019-05-22T01:19:08.354Z,15.36
2019-05-22T01:22:39.774Z,15.32
2019-05-22T01:26:14.477Z,15.32
2019-05-22T01:29:49.440Z,15.26
2019-05-22T01:33:23.156Z,15.23
2019-05-22T01:36:56.717Z,15.21
2019-05-22T01:40:39.389Z,15.17
2019-05-22T01:44:09.987Z,15.13
2019-05-22T01:47:47.364Z,15.11
2019-05-22T01:51:18.397Z,15.1
2019-05-22T01:54:49.728Z,15.06
2019-05-22T01:58:22.626Z,15.07
2019-05-22T02:01:54.196Z,15.06
2019-05-22T02:05:25.486Z,15.05
2019-05-22T02:09:14.211Z,15.07
2019-05-22T02:12:54.231Z,15.05
2019-05-22T02:16:27.837Z,15.1
2019-05-22T02:19:58.384Z,15.09
2019-05-22T02:23:29.820Z,15.03
2019-05-22T02:27:02.347Z,14.95
2019-05-22T02:30:34.674Z,14.88
2019-05-22T02:34:07.193Z,14.8
2019-05-22T02:37:38.451Z,14.77
2019-05-22T02:41:14.191Z,14.72
2019-05-22T02:44:45.289Z,14.76
2019-05-22T02:48:16.467Z,14.83
2019-05-22T02:51:48.073Z,14.79
2019-05-22T02:55:18.146Z,14.85
2019-05-22T02:58:48.218Z,14.86
2019-05-22T03:00:17.259Z,14.87
2019-05-22T03:03:47.906Z,14.9
2019-05-22T03:07:20.115Z,14.9
2019-05-22T03:10:50.479Z,14.89
2019-05-22T03:14:25.830Z,14.95
2019-05-22T03:18:00.891Z,14.98
2019-05-22T03:21:31.896Z,15.01
2019-05-22T03:25:04.733Z,15.06
2019-05-22T03:28:37.079Z,15.13
2019-05-22T03:32:07.946Z,15.04
2019-05-22T03:35:41.897Z,14.86
2019-05-22T03:39:14.712Z,14.59
2019-05-22T03:42:44.922Z,14.77
2019-05-22T03:46:24.732Z,14.83
2019-05-22T03:49:55.466Z,14.98
2019-05-22T03:53:25.733Z,15.19
2019-05-22T03:56:56.671Z,15.37
2019-05-22T04:00:27.531Z,15.34
2019-05-22T04:04:03.900Z,15.43
2019-05-22T04:07:34.488Z,15.55
2019-05-22T04:11:06.497Z,15.75
2019-05-22T04:14:38.134Z,15.92
2019-05-22T04:18:11.962Z,16.11
2019-05-22T04:21:43.386Z,16.26
2019-05-22T04:25:13.538Z,16.29
2019-05-22T04:28:46.999Z,16.31
2019-05-22T04:32:26.218Z,16.54
2019-05-22T04:36:29.685Z,16.62
2019-05-22T04:41:02.289Z,16.62
2019-05-22T04:44:39.317Z,16.55
2019-05-22T04:48:09.989Z,16.5
2019-05-22T04:51:40.431Z,16.42
2019-05-22T04:55:13.073Z,16.45
2019-05-22T04:58:43.293Z,16.58
2019-05-22T05:00:18.413Z,16.62
2019-05-22T05:03:48.746Z,16.63
2019-05-22T05:07:18.891Z,16.68
2019-05-22T05:10:50.885Z,16.56
2019-05-22T05:14:21.071Z,16.58
2019-05-22T05:17:51.301Z,16.88
2019-05-22T05:21:21.543Z,17.05
2019-05-22T05:24:51.696Z,17.19
2019-05-22T05:28:23.538Z,17.38
2019-05-22T05:31:53.690Z,17.49
2019-05-22T05:35:24.242Z,17.7
2019-05-22T05:38:54.686Z,18.03
2019-05-22T05:42:24.831Z,18.27
2019-05-22T05:45:55.107Z,18.4
2019-05-22T05:51:19.620Z,18.57
2019-05-22T05:54:49.937Z,18.82
2019-05-22T05:58:22.553Z,19.03
2019-05-22T06:01:54.399Z,19.25
2019-05-22T06:05:25.043Z,19.35
2019-05-22T06:08:55.856Z,19.46
2019-05-22T06:12:26.076Z,19.5
2019-05-22T06:18:35.118Z,19.6
2019-05-22T06:22:06.556Z,19.83
2019-05-22T06:25:37.987Z,19.9
2019-05-22T06:29:08.217Z,19.95
2019-05-22T06:33:36.241Z,20.1
2019-05-22T06:37:22.464Z,20.23
2019-05-22T06:40:53.766Z,20.45
2019-05-22T06:44:29.213Z,20.52
2019-05-22T06:47:59.152Z,20.56
2019-05-22T06:51:29.645Z,20.63
2019-05-22T06:54:59.753Z,20.69
2019-05-22T06:58:29.997Z,20.7
2019-05-22T07:00:18.841Z,20.81
2019-05-22T07:03:48.814Z,20.94
2019-05-22T07:07:20.618Z,21.05
2019-05-22T07:10:51.411Z,21.12
2019-05-22T07:14:22.174Z,21.06
2019-05-22T07:17:54.511Z,21.13
2019-05-22T07:21:33.554Z,21.28
2019-05-22T07:25:05.458Z,21.37
2019-05-22T07:28:35.755Z,21.45
2019-05-22T07:32:06.662Z,21.52
2019-05-22T07:35:56.193Z,21.58
2019-05-22T07:39:35.982Z,21.59
2019-05-22T07:43:06.340Z,21.67
2019-05-22T07:46:37.742Z,21.74
2019-05-22T07:50:09.358Z,21.78
2019-05-22T07:53:40.299Z,21.94
2019-05-22T07:57:19.629Z,22.06
2019-05-22T08:00:57.233Z,22.21
2019-05-22T08:04:29.480Z,22.27
2019-05-22T08:08:00.706Z,22.33
2019-05-22T08:11:30.828Z,22.46
2019-05-22T08:15:01.518Z,22.51
2019-05-22T08:18:34.402Z,22.3
2019-05-22T08:22:07.186Z,22.3
2019-05-22T08:25:38.910Z,22.37
2019-05-22T08:29:09.088Z,22.38
2019-05-22T08:32:39.841Z,22.24
2019-05-22T08:36:10.316Z,22.35
2019-05-22T08:39:41.567Z,22.41
2019-05-22T08:43:12.040Z,22.59
2019-05-22T08:46:44.090Z,22.63
2019-05-22T08:50:19.995Z,22.93
2019-05-22T08:53:51.423Z,23.26
2019-05-22T08:57:21.550Z,23.58
2019-05-22T09:00:20.536Z,23.67
2019-05-22T09:03:51.275Z,23.85
2019-05-22T09:07:22.116Z,24.07
2019-05-22T09:10:52.364Z,24.18
2019-05-22T09:14:22.436Z,24.45
2019-05-22T09:17:52.750Z,24.76
2019-05-22T09:21:23.405Z,25.04
2019-05-22T09:24:53.646Z,25.4
2019-05-22T09:28:23.934Z,25.7
2019-05-22T09:31:54.198Z,25.87
2019-05-22T09:35:24.542Z,26.11
2019-05-22T09:38:54.719Z,26.18
2019-05-22T09:42:25.168Z,26.37
2019-05-22T09:45:55.226Z,26.5
2019-05-22T09:49:25.805Z,26.77
2019-05-22T09:52:58.045Z,26.89
2019-05-22T09:56:28.845Z,26.72
2019-05-22T09:59:59.108Z,27.03
2019-05-22T10:03:29.498Z,26.96
2019-05-22T10:06:59.654Z,27.27
2019-05-22T10:10:30.536Z,27.83
2019-05-22T10:14:01.488Z,28.3
2019-05-22T10:17:32.988Z,28.58
2019-05-22T10:21:03.771Z,29.09
2019-05-22T10:24:34.328Z,29.7
2019-05-22T10:28:05.471Z,29.67
2019-05-22T10:31:36.145Z,29.67
2019-05-22T10:35:06.348Z,29.98
2019-05-22T10:38:36.652Z,30.36
2019-05-22T10:42:06.925Z,30.44
2019-05-22T10:45:37.609Z,30.36
2019-05-22T10:49:07.757Z,30.68
2019-05-22T10:52:38.155Z,30.87
2019-05-22T10:56:09.538Z,30.86
2019-05-22T10:59:39.828Z,30.67
2019-05-22T11:00:19.858Z,30.61
2019-05-22T11:03:50.523Z,30.53
2019-05-22T11:07:20.948Z,30.75
2019-05-22T11:10:51.515Z,30.81
2019-05-22T11:14:21.855Z,31.09
2019-05-22T11:17:52.839Z,31.29
2019-05-22T11:21:23.905Z,30.84
2019-05-22T11:24:54.159Z,31.23
2019-05-22T11:28:41.907Z,31.38
2019-05-22T11:32:12.581Z,31.69
2019-05-22T11:35:43.820Z,31.8
2019-05-22T11:39:18.662Z,31.4
2019-05-22T11:42:49.728Z,31.01
2019-05-22T11:46:20.045Z,31.12
2019-05-22T11:49:50.122Z,31.13
2019-05-22T11:53:20.356Z,30.19
2019-05-22T11:56:50.534Z,30.02
2019-05-22T12:00:21.965Z,29.72
2019-05-22T12:03:52.226Z,29.83
2019-05-22T12:07:22.665Z,29.39
2019-05-22T12:10:53.125Z,29.13
2019-05-22T12:14:23.492Z,29.81
2019-05-22T12:17:53.870Z,30.57
2019-05-22T12:21:24.001Z,31.16
2019-05-22T12:24:54.305Z,31.26
2019-05-22T12:28:24.768Z,31.89
2019-05-22T12:31:55.195Z,31.52
2019-05-22T12:35:27.005Z,31.33
2019-05-22T12:38:57.710Z,32.04
2019-05-22T12:42:28.567Z,33.05
2019-05-22T12:45:58.647Z,32.11
2019-05-22T12:49:29.339Z,31.41
2019-05-22T12:53:01.123Z,32.45
2019-05-22T12:56:31.838Z,33.33
2019-05-22T13:00:20.659Z,33.42
2019-05-22T13:03:54.342Z,32.62
2019-05-22T13:07:25.914Z,32.15
2019-05-22T13:10:56.735Z,30.77
2019-05-22T13:14:26.952Z,31.17
2019-05-22T13:17:58.180Z,31.71
2019-05-22T13:21:32.333Z,31.5
2019-05-22T13:25:04.177Z,30.66
2019-05-22T13:28:35.608Z,30.99
2019-05-22T13:32:06.395Z,31.93
2019-05-22T13:35:38.049Z,32.75
2019-05-22T13:39:08.862Z,33.28
2019-05-22T13:42:39.485Z,32.04
2019-05-22T13:46:10.004Z,31.81
2019-05-22T13:49:42.103Z,30.01
2019-05-22T13:53:13.845Z,28.95
2019-05-22T13:56:44.365Z,28.94
2019-05-22T14:00:15.948Z,27.96
2019-05-22T14:03:46.436Z,26.85
2019-05-22T14:07:16.786Z,26.41
2019-05-22T14:10:50.039Z,25.66
2019-05-22T14:14:20.658Z,25.06
2019-05-22T14:17:50.746Z,24.74
2019-05-22T14:21:21.042Z,24.54
2019-05-22T14:24:51.165Z,24.33
2019-05-22T14:28:23.323Z,24.32
2019-05-22T14:31:53.928Z,24.27
2019-05-22T14:35:26.802Z,24.17
2019-05-22T14:38:57.270Z,23.88
2019-05-22T14:42:27.541Z,23.67
2019-05-22T14:45:58.212Z,23.53
2019-05-22T14:49:28.416Z,23.29
2019-05-22T14:52:59.375Z,23.5
2019-05-22T14:56:30.231Z,23.87
2019-05-22T15:00:00.320Z,24.04
2019-05-22T15:00:17.225Z,24.07
2019-05-22T15:03:47.447Z,24.07
2019-05-22T15:07:17.720Z,24.45
2019-05-22T15:10:47.886Z,25.77
2019-05-22T15:14:18.245Z,26.91
2019-05-22T15:17:48.786Z,26.64
2019-05-22T15:21:19.533Z,26.06
2019-05-22T15:24:49.916Z,25.66
2019-05-22T15:28:20.700Z,25.13
2019-05-22T15:31:50.872Z,24.78
2019-05-22T15:35:21.871Z,24.49
2019-05-22T15:38:52.820Z,24.13
2019-05-22T15:42:34.781Z,24.11
2019-05-22T15:46:05.824Z,24.17
2019-05-22T15:49:41.965Z,24.35
2019-05-22T15:53:15.004Z,24.51
2019-05-22T15:56:46.437Z,24.43
2019-05-22T16:00:22.923Z,24.61
2019-05-22T16:03:55.149Z,25.02
2019-05-22T16:07:25.202Z,25.29
2019-05-22T16:10:59.641Z,25.76
2019-05-22T16:14:34.276Z,26.08
2019-05-22T16:18:11.795Z,27.49
2019-05-22T16:21:45.737Z,29.53
2019-05-22T16:25:16.309Z,30.8
2019-05-22T16:28:46.803Z,31.19
2019-05-22T16:32:18.593Z,31.05
2019-05-22T16:35:48.949Z,31.32
2019-05-22T16:39:20.502Z,31.76
2019-05-22T16:42:51.790Z,32.05
2019-05-22T16:46:23.162Z,32.2
2019-05-22T16:49:55.458Z,31.59
2019-05-22T16:53:26.834Z,30.84
2019-05-22T16:56:57.455Z,30.39
2019-05-22T17:00:17.169Z,30.24
2019-05-22T17:03:51.488Z,29.86
2019-05-22T17:07:21.828Z,28.67
2019-05-22T17:10:53.540Z,27.4
2019-05-22T17:14:23.854Z,26.47
2019-05-22T17:17:53.978Z,25.63
2019-05-22T17:21:25.117Z,25.04
2019-05-22T17:24:55.618Z,24.55
2019-05-22T17:28:26.103Z,23.94
2019-05-22T17:31:56.536Z,23.26
2019-05-22T17:35:27.712Z,22.79
2019-05-22T17:38:58.625Z,22.44
2019-05-22T17:42:29.590Z,22.27
2019-05-22T17:46:00.128Z,21.94
2019-05-22T17:49:31.968Z,21.68
2019-05-22T17:53:03.015Z,21.48
2019-05-22T17:56:33.139Z,21.3
2019-05-22T18:00:12.931Z,21.18
2019-05-22T18:03:42.907Z,20.98
2019-05-22T18:07:13.414Z,20.79
2019-05-22T18:10:47.581Z,20.6
2019-05-22T18:14:17.738Z,20.5
2019-05-22T18:17:49.366Z,20.44
2019-05-22T18:21:19.500Z,20.45
2019-05-22T18:24:50.012Z,20.39
2019-05-22T18:28:21.045Z,20.26
2019-05-22T18:31:51.311Z,20.32
2019-05-22T18:35:21.465Z,20.35
2019-05-22T18:38:51.554Z,20.34
2019-05-22T18:42:21.577Z,20.23
2019-05-22T18:45:51.833Z,20.06
2019-05-22T18:49:21.985Z,20.06
2019-05-22T18:52:52.044Z,20.05
2019-05-22T18:56:22.267Z,19.88
2019-05-22T19:00:00.106Z,19.71
2019-05-22T19:00:19.542Z,19.68
2019-05-22T19:03:49.985Z,19.64
2019-05-22T19:07:20.243Z,19.59
2019-05-22T19:10:50.371Z,19.49
2019-05-22T19:14:20.790Z,19.52
2019-05-22T19:17:51.068Z,19.52
2019-05-22T19:21:21.187Z,19.49
2019-05-22T19:24:51.446Z,19.49
2019-05-22T19:28:22.149Z,19.44
2019-05-22T19:31:52.164Z,19.37
2019-05-22T19:35:22.373Z,19.21
2019-05-22T19:38:52.469Z,19.11
2019-05-22T19:42:22.880Z,19.08
2019-05-22T19:45:53.373Z,18.98
2019-05-22T19:49:24.226Z,18.82
2019-05-22T19:52:55.560Z,18.83
2019-05-22T19:56:25.799Z,18.8
2019-05-22T19:59:56.055Z,18.82
2019-05-22T20:03:27.098Z,18.82
2019-05-22T20:06:57.490Z,18.81
2019-05-22T20:10:27.591Z,18.75
2019-05-22T20:13:58.009Z,18.77
2019-05-22T20:17:28.388Z,18.63
2019-05-22T20:20:58.815Z,18.59
2019-05-22T20:24:29.405Z,18.66
2019-05-22T20:28:00.865Z,18.69
2019-05-22T20:31:31.117Z,18.68
2019-05-22T20:35:01.801Z,18.65
2019-05-22T20:38:32.376Z,18.61
2019-05-22T20:42:02.621Z,18.61
2019-05-22T20:45:34.207Z,18.58
2019-05-22T20:49:05.863Z,18.61
2019-05-22T20:52:36.603Z,18.63
2019-05-22T20:56:08.144Z,18.64
2019-05-22T20:59:40.464Z,18.63
2019-05-22T21:00:22.052Z,18.63
2019-05-22T21:03:53.274Z,18.68
2019-05-22T21:07:31.913Z,18.61
2019-05-22T21:11:07.190Z,18.52
2019-05-22T21:14:37.451Z,18.44
2019-05-22T21:18:07.789Z,18.3
2019-05-22T21:21:37.929Z,18.21
2019-05-22T21:25:09.293Z,18.18
2019-05-22T21:28:39.733Z,18.2
2019-05-22T21:32:10.885Z,18.22
2019-05-22T21:35:41.064Z,18.25
2019-05-22T21:39:13.946Z,18.29
2019-05-22T21:42:46.247Z,18.3
2019-05-22T21:46:16.850Z,18.37
2019-05-22T21:49:47.586Z,18.41
2019-05-22T21:53:18.348Z,18.38
2019-05-22T21:56:49.139Z,18.39
2019-05-22T22:00:28.831Z,18.35
2019-05-22T22:04:05.711Z,18.14
2019-05-22T22:07:35.927Z,18.02
2019-05-22T22:11:06.267Z,18.02
2019-05-22T22:14:37.146Z,18.03
2019-05-22T22:18:08.325Z,18.07
2019-05-22T22:21:39.979Z,18.05
2019-05-22T22:25:11.505Z,18.01
2019-05-22T22:28:42.114Z,18.05
2019-05-22T22:32:13.651Z,18.11
2019-05-22T22:35:44.324Z,18.06
2019-05-22T22:39:15.423Z,17.98
2019-05-22T22:42:46.897Z,17.92
2019-05-22T22:46:25.753Z,17.77
2019-05-22T22:49:58.690Z,17.52
2019-05-22T22:53:28.784Z,17.46
2019-05-22T22:56:59.364Z,17.39
2019-05-22T23:00:24.080Z,17.41
2019-05-22T23:03:55.984Z,17.46
2019-05-22T23:07:29.031Z,17.16
2019-05-22T23:10:59.652Z,16.97
2019-05-22T23:14:32.211Z,17.04
2019-05-22T23:18:03.565Z,17.04
2019-05-22T23:24:28.303Z,17.02
2019-05-22T23:28:00.789Z,17.03
2019-05-22T23:31:31.816Z,16.64
2019-05-22T23:35:02.538Z,16.36
2019-05-22T23:38:32.975Z,16.27
2019-05-22T23:42:10.789Z,16.43
2019-05-22T23:45:41.531Z,16.32
2019-05-22T23:49:12.358Z,16.12
2019-05-22T23:52:43.407Z,15.9
2019-05-22T23:56:14.797Z,15.91
2019-05-22T23:59:55.351Z,16.08
